sensor_id;sensor_type;location;lat;lon;timestamp;pressure;altitude;pressure_sealevel;temperature;humidity
75008;BME280;63554;48.940;12.050;2023-04-28T00:02:26;97387.13;;;7.24;70.20
75008;BME280;63554;48.940;12.050;2023-04-28T00:06:29;97390.19;;;7.21;70.23
75008;BME280;63554;48.940;12.050;2023-04-28T00:10:34;97384.97;;;7.13;69.87
75008;BME280;63554;48.940;12.050;2023-04-28T00:14:37;97391.59;;;7.10;69.98
75008;BME280;63554;48.940;12.050;2023-04-28T00:18:40;97381.47;;;7.12;69.79
75008;BME280;63554;48.940;12.050;2023-04-28T00:22:43;97377.53;;;7.15;70.01
75008;BME280;63554;48.940;12.050;2023-04-28T00:26:47;97376.13;;;7.19;70.25
75008;BME280;63554;48.940;12.050;2023-04-28T00:30:50;97377.16;;;7.18;71.10
75008;BME280;63554;48.940;12.050;2023-04-28T00:34:53;97379.81;;;7.11;71.37
75008;BME280;63554;48.940;12.050;2023-04-28T00:38:56;97370.25;;;7.09;71.65
75008;BME280;63554;48.940;12.050;2023-04-28T00:43:00;97377.53;;;7.15;70.95
75008;BME280;63554;48.940;12.050;2023-04-28T00:47:03;97377.50;;;7.08;71.17
75008;BME280;63554;48.940;12.050;2023-04-28T00:51:06;97367.56;;;7.09;71.76
75008;BME280;63554;48.940;12.050;2023-04-28T00:55:09;97368.19;;;7.11;72.08
75008;BME280;63554;48.940;12.050;2023-04-28T00:59:13;97379.59;;;7.13;71.88
75008;BME280;63554;48.940;12.050;2023-04-28T01:03:16;97355.78;;;7.10;72.27
75008;BME280;63554;48.940;12.050;2023-04-28T01:07:19;97352.69;;;7.13;72.41
75008;BME280;63554;48.940;12.050;2023-04-28T01:11:22;97355.38;;;7.13;72.30
75008;BME280;63554;48.940;12.050;2023-04-28T01:15:26;97351.66;;;7.14;72.57
75008;BME280;63554;48.940;12.050;2023-04-28T01:19:30;97351.88;;;7.12;72.16
75008;BME280;63554;48.940;12.050;2023-04-28T01:23:32;97351.22;;;7.10;72.52
75008;BME280;63554;48.940;12.050;2023-04-28T01:27:36;97365.50;;;7.11;72.30
75008;BME280;63554;48.940;12.050;2023-04-28T01:31:39;97355.34;;;7.06;72.35
75008;BME280;63554;48.940;12.050;2023-04-28T01:35:42;97346.84;;;7.03;72.55
75008;BME280;63554;48.940;12.050;2023-04-28T01:39:44;97340.81;;;7.01;72.81
75008;BME280;63554;48.940;12.050;2023-04-28T01:43:49;97346.84;;;7.03;73.31
75008;BME280;63554;48.940;12.050;2023-04-28T01:47:52;97337.94;;;7.02;73.33
75008;BME280;63554;48.940;12.050;2023-04-28T01:51:55;97338.13;;;7.01;73.14
75008;BME280;63554;48.940;12.050;2023-04-28T01:55:57;97338.13;;;7.01;73.31
75008;BME280;63554;48.940;12.050;2023-04-28T02:00:01;97337.94;;;7.02;73.28
75008;BME280;63554;48.940;12.050;2023-04-28T02:04:05;97332.75;;;7.01;72.47
75008;BME280;63554;48.940;12.050;2023-04-28T02:08:08;97331.31;;;7.05;72.75
75008;BME280;63554;48.940;12.050;2023-04-28T02:12:11;97328.63;;;7.05;72.42
75008;BME280;63554;48.940;12.050;2023-04-28T02:16:15;97327.81;;;7.04;72.81
75008;BME280;63554;48.940;12.050;2023-04-28T02:20:18;97322.78;;;6.95;72.58
75008;BME280;63554;48.940;12.050;2023-04-28T02:24:20;97319.84;;;6.89;72.00
75008;BME280;63554;48.940;12.050;2023-04-28T02:28:23;97316.97;;;6.91;71.65
75008;BME280;63554;48.940;12.050;2023-04-28T02:32:27;97311.38;;;6.92;71.00
75008;BME280;63554;48.940;12.050;2023-04-28T02:36:30;97318.41;;;6.93;70.59
75008;BME280;63554;48.940;12.050;2023-04-28T02:40:33;97315.34;;;6.97;71.18
75008;BME280;63554;48.940;12.050;2023-04-28T02:44:36;97317.84;;;6.98;70.27
75008;BME280;63554;48.940;12.050;2023-04-28T02:48:40;97310.59;;;6.99;70.52
75008;BME280;63554;48.940;12.050;2023-04-28T02:52:42;97314.28;;;6.98;70.21
75008;BME280;63554;48.940;12.050;2023-04-28T02:56:48;97312.25;;;7.00;70.55
75008;BME280;63554;48.940;12.050;2023-04-28T03:00:50;97313.88;;;6.94;71.25
75008;BME280;63554;48.940;12.050;2023-04-28T03:04:54;97313.63;;;6.89;71.44
75008;BME280;63554;48.940;12.050;2023-04-28T03:08:57;97315.31;;;6.90;71.65
75008;BME280;63554;48.940;12.050;2023-04-28T03:13:00;97302.44;;;6.85;71.86
75008;BME280;63554;48.940;12.050;2023-04-28T03:17:02;97302.63;;;6.84;72.46
75008;BME280;63554;48.940;12.050;2023-04-28T03:21:07;97291.22;;;6.82;72.58
75008;BME280;63554;48.940;12.050;2023-04-28T03:25:09;97300.09;;;6.76;72.12
75008;BME280;63554;48.940;12.050;2023-04-28T03:29:12;97290.78;;;6.78;72.46
75008;BME280;63554;48.940;12.050;2023-04-28T03:33:15;97290.03;;;6.84;72.43
75008;BME280;63554;48.940;12.050;2023-04-28T03:37:19;97283.84;;;6.90;71.52
75008;BME280;63554;48.940;12.050;2023-04-28T03:41:21;97280.75;;;6.93;71.92
75008;BME280;63554;48.940;12.050;2023-04-28T03:45:24;97277.88;;;6.95;71.41
75008;BME280;63554;48.940;12.050;2023-04-28T03:49:27;97264.78;;;6.85;71.99
75008;BME280;63554;48.940;12.050;2023-04-28T03:53:31;97265.56;;;6.79;71.18
75008;BME280;63554;48.940;12.050;2023-04-28T03:57:34;97265.38;;;6.81;71.27
75008;BME280;63554;48.940;12.050;2023-04-28T04:01:37;97255.63;;;6.80;70.60
75008;BME280;63554;48.940;12.050;2023-04-28T04:05:39;97264.78;;;6.85;70.59
75008;BME280;63554;48.940;12.050;2023-04-28T04:09:44;97260.66;;;6.89;70.74
75008;BME280;63554;48.940;12.050;2023-04-28T04:13:46;97266.28;;;6.95;70.38
75008;BME280;63554;48.940;12.050;2023-04-28T04:17:49;97248.28;;;6.95;69.91
75008;BME280;63554;48.940;12.050;2023-04-28T04:21:52;97254.09;;;6.99;69.88
75008;BME280;63554;48.940;12.050;2023-04-28T04:25:56;97252.03;;;7.01;70.25
75008;BME280;63554;48.940;12.050;2023-04-28T04:29:58;97243.13;;;7.00;70.38
75008;BME280;63554;48.940;12.050;2023-04-28T04:34:01;97243.56;;;7.04;70.29
75008;BME280;63554;48.940;12.050;2023-04-28T04:38:04;97248.31;;;7.02;69.63
75008;BME280;63554;48.940;12.050;2023-04-28T04:42:09;97250.22;;;7.08;70.23
75008;BME280;63554;48.940;12.050;2023-04-28T04:46:25;97245.03;;;7.13;69.31
75008;BME280;63554;48.940;12.050;2023-04-28T04:50:28;97237.59;;;7.15;68.89
75008;BME280;63554;48.940;12.050;2023-04-28T04:54:31;97241.16;;;7.22;68.70
75008;BME280;63554;48.940;12.050;2023-04-28T04:58:35;97243.47;;;7.25;68.54
75008;BME280;63554;48.940;12.050;2023-04-28T05:02:38;97250.09;;;7.29;68.94
75008;BME280;63554;48.940;12.050;2023-04-28T05:06:41;97236.00;;;7.27;68.76
75008;BME280;63554;48.940;12.050;2023-04-28T05:10:44;97224.00;;;7.30;69.00
75008;BME280;63554;48.940;12.050;2023-04-28T05:14:48;97207.84;;;7.30;69.15
75008;BME280;63554;48.940;12.050;2023-04-28T05:18:51;97203.28;;;7.30;68.96
75008;BME280;63554;48.940;12.050;2023-04-28T05:22:54;97206.84;;;7.38;69.27
75008;BME280;63554;48.940;12.050;2023-04-28T05:26:57;97212.22;;;7.38;70.05
75008;BME280;63554;48.940;12.050;2023-04-28T05:31:02;97231.50;;;7.41;69.49
75008;BME280;63554;48.940;12.050;2023-04-28T05:35:05;97239.16;;;7.44;69.38
75008;BME280;63554;48.940;12.050;2023-04-28T05:39:07;97242.50;;;7.53;68.88
75008;BME280;63554;48.940;12.050;2023-04-28T05:43:10;97255.34;;;7.64;68.36
75008;BME280;63554;48.940;12.050;2023-04-28T05:47:14;97258.47;;;7.68;68.44
75008;BME280;63554;48.940;12.050;2023-04-28T05:51:17;97254.34;;;7.72;68.96
75008;BME280;63554;48.940;12.050;2023-04-28T05:55:20;97254.72;;;7.62;70.00
75008;BME280;63554;48.940;12.050;2023-04-28T05:59:23;97251.22;;;7.55;69.65
75008;BME280;63554;48.940;12.050;2023-04-28T06:03:27;97235.47;;;7.59;69.67
75008;BME280;63554;48.940;12.050;2023-04-28T06:07:30;97245.00;;;7.61;70.49
75008;BME280;63554;48.940;12.050;2023-04-28T06:11:33;97229.88;;;7.60;70.70
75008;BME280;63554;48.940;12.050;2023-04-28T06:15:36;97222.41;;;7.62;70.15
75008;BME280;63554;48.940;12.050;2023-04-28T06:19:40;97210.22;;;7.66;70.54
75008;BME280;63554;48.940;12.050;2023-04-28T06:23:43;97227.00;;;7.68;70.36
75008;BME280;63554;48.940;12.050;2023-04-28T06:27:46;97233.22;;;7.76;70.09
75008;BME280;63554;48.940;12.050;2023-04-28T06:31:49;97230.09;;;7.72;70.86
75008;BME280;63554;48.940;12.050;2023-04-28T06:35:54;97222.88;;;7.72;70.90
75008;BME280;63554;48.940;12.050;2023-04-28T06:39:57;97216.22;;;7.75;71.20
75008;BME280;63554;48.940;12.050;2023-04-28T06:44:00;97214.16;;;7.77;70.92
75008;BME280;63554;48.940;12.050;2023-04-28T06:48:03;97218.72;;;7.77;70.51
75008;BME280;63554;48.940;12.050;2023-04-28T06:52:08;97218.53;;;7.78;70.12
75008;BME280;63554;48.940;12.050;2023-04-28T06:56:10;97241.53;;;7.87;70.87
75008;BME280;63554;48.940;12.050;2023-04-28T07:00:14;97240.69;;;7.93;70.91
75008;BME280;63554;48.940;12.050;2023-04-28T07:04:17;97253.97;;;7.95;72.45
75008;BME280;63554;48.940;12.050;2023-04-28T07:08:22;97257.50;;;7.96;73.43
75008;BME280;63554;48.940;12.050;2023-04-28T07:12:24;97256.88;;;7.93;73.98
75008;BME280;63554;48.940;12.050;2023-04-28T07:16:27;97268.91;;;7.91;75.12
75008;BME280;63554;48.940;12.050;2023-04-28T07:20:30;97261.84;;;7.83;77.40
75008;BME280;63554;48.940;12.050;2023-04-28T07:24:34;97267.63;;;7.73;78.48
75008;BME280;63554;48.940;12.050;2023-04-28T07:28:36;97260.97;;;7.69;79.52
75008;BME280;63554;48.940;12.050;2023-04-28T07:32:39;97263.44;;;7.64;80.32
75008;BME280;63554;48.940;12.050;2023-04-28T07:36:42;97254.97;;;7.61;81.38
75008;BME280;63554;48.940;12.050;2023-04-28T07:40:46;97264.69;;;7.62;82.83
75008;BME280;63554;48.940;12.050;2023-04-28T07:44:49;97257.44;;;7.62;82.54
75008;BME280;63554;48.940;12.050;2023-04-28T07:48:52;97262.84;;;7.69;82.73
75008;BME280;63554;48.940;12.050;2023-04-28T07:52:55;97257.50;;;7.82;82.77
75008;BME280;63554;48.940;12.050;2023-04-28T07:56:59;97255.41;;;7.98;82.47
75008;BME280;63554;48.940;12.050;2023-04-28T08:01:06;97246.09;;;8.07;82.71
75008;BME280;63554;48.940;12.050;2023-04-28T08:05:09;97240.72;;;8.07;82.19
75008;BME280;63554;48.940;12.050;2023-04-28T08:09:12;97236.34;;;7.99;82.10
75008;BME280;63554;48.940;12.050;2023-04-28T08:13:16;97241.75;;;7.92;82.44
75008;BME280;63554;48.940;12.050;2023-04-28T08:17:19;97226.41;;;7.93;82.54
75008;BME280;63554;48.940;12.050;2023-04-28T08:21:21;97217.06;;;7.96;83.59
75008;BME280;63554;48.940;12.050;2023-04-28T08:25:24;97225.59;;;7.92;83.14
75008;BME280;63554;48.940;12.050;2023-04-28T08:29:28;97216.28;;;8.02;83.58
75008;BME280;63554;48.940;12.050;2023-04-28T08:33:32;97218.13;;;8.15;83.34
75008;BME280;63554;48.940;12.050;2023-04-28T08:37:35;97221.22;;;8.25;83.13
75008;BME280;63554;48.940;12.050;2023-04-28T08:41:38;97226.00;;;8.36;84.24
75008;BME280;63554;48.940;12.050;2023-04-28T08:45:42;97227.91;;;8.49;84.34
75008;BME280;63554;48.940;12.050;2023-04-28T08:49:47;97230.16;;;8.52;83.42
75008;BME280;63554;48.940;12.050;2023-04-28T08:53:52;97219.16;;;8.54;83.43
75008;BME280;63554;48.940;12.050;2023-04-28T08:57:59;97218.13;;;8.48;84.46
75008;BME280;63554;48.940;12.050;2023-04-28T09:02:03;97207.13;;;8.49;84.99
75008;BME280;63554;48.940;12.050;2023-04-28T09:06:06;97206.31;;;8.49;85.90
75008;BME280;63554;48.940;12.050;2023-04-28T09:10:14;97211.28;;;8.45;86.09
75008;BME280;63554;48.940;12.050;2023-04-28T09:14:18;97209.00;;;8.49;86.76
75008;BME280;63554;48.940;12.050;2023-04-28T09:18:22;97208.41;;;8.47;87.95
75008;BME280;63554;48.940;12.050;2023-04-28T09:22:26;97209.63;;;8.44;88.19
75008;BME280;63554;48.940;12.050;2023-04-28T09:26:47;97203.38;;;8.50;88.37
75008;BME280;63554;48.940;12.050;2023-04-28T09:30:51;97202.75;;;8.62;89.18
75008;BME280;63554;48.940;12.050;2023-04-28T09:34:55;97200.84;;;8.82;89.55
75008;BME280;63554;48.940;12.050;2023-04-28T09:38:58;97174.66;;;8.89;89.96
75008;BME280;63554;48.940;12.050;2023-04-28T09:43:01;97176.88;;;8.99;90.02
75008;BME280;63554;48.940;12.050;2023-04-28T09:47:21;97160.44;;;9.07;89.71
75008;BME280;63554;48.940;12.050;2023-04-28T09:51:26;97160.22;;;9.16;89.59
75008;BME280;63554;48.940;12.050;2023-04-28T09:55:29;97153.75;;;9.23;89.35
75008;BME280;63554;48.940;12.050;2023-04-28T09:59:34;97161.03;;;9.16;89.33
75008;BME280;63554;48.940;12.050;2023-04-28T10:03:38;97156.72;;;9.08;89.94
75008;BME280;63554;48.940;12.050;2023-04-28T10:07:43;97160.06;;;9.04;89.96
75008;BME280;63554;48.940;12.050;2023-04-28T10:11:46;97156.56;;;8.97;89.91
75008;BME280;63554;48.940;12.050;2023-04-28T10:15:50;97152.22;;;8.89;90.37
75008;BME280;63554;48.940;12.050;2023-04-28T10:19:55;97139.81;;;8.81;90.95
75008;BME280;63554;48.940;12.050;2023-04-28T10:24:14;97145.03;;;8.76;91.39
75008;BME280;63554;48.940;12.050;2023-04-28T10:28:19;97141.31;;;8.70;91.88
75008;BME280;63554;48.940;12.050;2023-04-28T10:32:23;97137.31;;;8.80;92.08
75008;BME280;63554;48.940;12.050;2023-04-28T10:36:47;97138.34;;;8.85;92.01
75008;BME280;63554;48.940;12.050;2023-04-28T10:40:52;97138.53;;;8.90;91.64
75008;BME280;63554;48.940;12.050;2023-04-28T10:44:55;97145.63;;;8.85;91.91
75008;BME280;63554;48.940;12.050;2023-04-28T10:48:58;97136.09;;;8.82;92.55
75008;BME280;63554;48.940;12.050;2023-04-28T10:53:01;97121.13;;;8.86;93.15
75008;BME280;63554;48.940;12.050;2023-04-28T10:57:21;97116.50;;;8.94;93.23
75008;BME280;63554;48.940;12.050;2023-04-28T11:01:25;97112.78;;;8.95;93.05
75008;BME280;63554;48.940;12.050;2023-04-28T11:05:30;97092.81;;;8.96;93.24
75008;BME280;63554;48.940;12.050;2023-04-28T11:09:47;97096.72;;;9.06;93.62
75008;BME280;63554;48.940;12.050;2023-04-28T11:13:52;97103.06;;;9.19;93.61
75008;BME280;63554;48.940;12.050;2023-04-28T11:17:56;97104.09;;;9.24;93.60
75008;BME280;63554;48.940;12.050;2023-04-28T11:22:00;97100.34;;;9.25;94.01
75008;BME280;63554;48.940;12.050;2023-04-28T11:26:03;97102.38;;;9.30;94.32
75008;BME280;63554;48.940;12.050;2023-04-28T11:30:20;97099.63;;;9.37;94.46
75008;BME280;63554;48.940;12.050;2023-04-28T11:34:23;97092.03;;;9.59;94.55
75008;BME280;63554;48.940;12.050;2023-04-28T11:38:26;97091.88;;;9.72;94.21
75008;BME280;63554;48.940;12.050;2023-04-28T11:42:29;97093.78;;;9.72;94.50
75008;BME280;63554;48.940;12.050;2023-04-28T11:46:33;97091.34;;;9.63;94.88
75008;BME280;63554;48.940;12.050;2023-04-28T11:50:36;97080.03;;;9.73;94.96
75008;BME280;63554;48.940;12.050;2023-04-28T11:54:39;97078.94;;;9.81;94.88
75008;BME280;63554;48.940;12.050;2023-04-28T11:58:44;97092.16;;;9.89;95.11
75008;BME280;63554;48.940;12.050;2023-04-28T12:02:48;97086.69;;;9.96;95.06
75008;BME280;63554;48.940;12.050;2023-04-28T12:06:58;97072.06;;;10.03;94.54
75008;BME280;63554;48.940;12.050;2023-04-28T12:11:10;97079.38;;;10.21;94.02
75008;BME280;63554;48.940;12.050;2023-04-28T12:15:13;97078.28;;;10.29;93.84
75008;BME280;63554;48.940;12.050;2023-04-28T12:19:19;97082.56;;;10.37;93.73
75008;BME280;63554;48.940;12.050;2023-04-28T12:23:28;97081.69;;;10.43;93.88
75008;BME280;63554;48.940;12.050;2023-04-28T12:27:31;97092.03;;;10.46;94.03
75008;BME280;63554;48.940;12.050;2023-04-28T12:31:47;97103.69;;;10.46;93.97
75008;BME280;63554;48.940;12.050;2023-04-28T12:35:51;97107.97;;;10.54;94.29
75008;BME280;63554;48.940;12.050;2023-04-28T12:39:55;97111.66;;;10.60;94.20
75008;BME280;63554;48.940;12.050;2023-04-28T12:43:58;97108.50;;;10.63;93.97
75008;BME280;63554;48.940;12.050;2023-04-28T12:48:00;97103.00;;;10.69;93.73
75008;BME280;63554;48.940;12.050;2023-04-28T12:52:05;97102.47;;;10.79;93.82
75008;BME280;63554;48.940;12.050;2023-04-28T12:56:08;97106.31;;;10.90;93.56
75008;BME280;63554;48.940;12.050;2023-04-28T13:00:11;97097.66;;;11.00;93.40
75008;BME280;63554;48.940;12.050;2023-04-28T13:04:16;97085.66;;;11.07;93.70
75008;BME280;63554;48.940;12.050;2023-04-28T13:08:21;97080.03;;;11.21;93.59
75008;BME280;63554;48.940;12.050;2023-04-28T13:12:24;97088.78;;;11.35;93.80
75008;BME280;63554;48.940;12.050;2023-04-28T13:16:26;97080.97;;;11.45;93.87
75008;BME280;63554;48.940;12.050;2023-04-28T13:20:30;97080.84;;;11.52;93.65
75008;BME280;63554;48.940;12.050;2023-04-28T13:24:35;97072.38;;;11.72;93.62
75008;BME280;63554;48.940;12.050;2023-04-28T13:28:38;97068.28;;;11.81;93.14
75008;BME280;63554;48.940;12.050;2023-04-28T13:32:41;97083.81;;;11.74;92.89
75008;BME280;63554;48.940;12.050;2023-04-28T13:36:44;97067.69;;;11.67;93.46
75008;BME280;63554;48.940;12.050;2023-04-28T13:40:49;97062.59;;;11.59;93.17
75008;BME280;63554;48.940;12.050;2023-04-28T13:44:52;97060.84;;;11.64;93.33
75008;BME280;63554;48.940;12.050;2023-04-28T13:48:55;97055.88;;;11.73;93.08
75008;BME280;63554;48.940;12.050;2023-04-28T13:52:58;97051.41;;;11.79;92.60
75008;BME280;63554;48.940;12.050;2023-04-28T13:57:02;97044.00;;;11.86;92.46
75008;BME280;63554;48.940;12.050;2023-04-28T14:01:05;97030.34;;;11.93;92.46
75008;BME280;63554;48.940;12.050;2023-04-28T14:05:08;97034.97;;;11.92;92.18
75008;BME280;63554;48.940;12.050;2023-04-28T14:09:11;97058.38;;;11.86;92.57
75008;BME280;63554;48.940;12.050;2023-04-28T14:13:16;97036.78;;;11.80;93.18
75008;BME280;63554;48.940;12.050;2023-04-28T14:17:18;97042.47;;;11.78;92.57
75008;BME280;63554;48.940;12.050;2023-04-28T14:21:21;97036.69;;;11.75;92.93
75008;BME280;63554;48.940;12.050;2023-04-28T14:25:25;97036.31;;;11.71;93.73
75008;BME280;63554;48.940;12.050;2023-04-28T14:29:29;97043.41;;;11.72;94.07
75008;BME280;63554;48.940;12.050;2023-04-28T14:33:32;97034.91;;;11.68;94.42
75008;BME280;63554;48.940;12.050;2023-04-28T14:37:35;97033.97;;;11.75;94.61
75008;BME280;63554;48.940;12.050;2023-04-28T14:41:38;97034.66;;;11.70;95.12
75008;BME280;63554;48.940;12.050;2023-04-28T14:45:42;97031.50;;;11.73;95.22
75008;BME280;63554;48.940;12.050;2023-04-28T14:49:46;97014.41;;;11.73;95.40
75008;BME280;63554;48.940;12.050;2023-04-28T14:53:48;97018.41;;;11.70;95.32
75008;BME280;63554;48.940;12.050;2023-04-28T14:57:51;97013.31;;;11.62;95.29
75008;BME280;63554;48.940;12.050;2023-04-28T15:01:56;97016.63;;;11.64;95.33
75008;BME280;63554;48.940;12.050;2023-04-28T15:05:59;97003.56;;;11.61;95.40
75008;BME280;63554;48.940;12.050;2023-04-28T15:10:03;97006.38;;;11.54;95.24
75008;BME280;63554;48.940;12.050;2023-04-28T15:14:06;97023.13;;;11.51;95.96
75008;BME280;63554;48.940;12.050;2023-04-28T15:18:10;97024.66;;;11.47;96.19
75008;BME280;63554;48.940;12.050;2023-04-28T15:22:15;97020.63;;;11.38;96.53
75008;BME280;63554;48.940;12.050;2023-04-28T15:26:19;97015.41;;;11.36;96.54
75008;BME280;63554;48.940;12.050;2023-04-28T15:30:22;97006.25;;;11.37;96.89
75008;BME280;63554;48.940;12.050;2023-04-28T15:34:26;96997.63;;;11.40;96.89
75008;BME280;63554;48.940;12.050;2023-04-28T15:38:29;96994.34;;;11.50;96.80
75008;BME280;63554;48.940;12.050;2023-04-28T15:42:32;96988.34;;;11.48;96.53
75008;BME280;63554;48.940;12.050;2023-04-28T15:46:35;96982.34;;;11.46;96.81
75008;BME280;63554;48.940;12.050;2023-04-28T15:50:39;96977.63;;;11.41;96.68
75008;BME280;63554;48.940;12.050;2023-04-28T15:54:42;96985.84;;;11.46;97.08
75008;BME280;63554;48.940;12.050;2023-04-28T15:58:45;96984.81;;;11.36;97.18
75008;BME280;63554;48.940;12.050;2023-04-28T16:02:48;96989.41;;;11.35;97.50
75008;BME280;63554;48.940;12.050;2023-04-28T16:06:53;96994.47;;;11.32;97.43
75008;BME280;63554;48.940;12.050;2023-04-28T16:10:56;96985.50;;;11.31;97.78
75008;BME280;63554;48.940;12.050;2023-04-28T16:14:59;96991.38;;;11.28;97.97
75008;BME280;63554;48.940;12.050;2023-04-28T16:19:02;96985.97;;;11.28;98.17
75008;BME280;63554;48.940;12.050;2023-04-28T16:23:07;96986.34;;;11.32;97.88
75008;BME280;63554;48.940;12.050;2023-04-28T16:27:14;96997.97;;;11.32;97.86
75008;BME280;63554;48.940;12.050;2023-04-28T16:31:17;96989.72;;;11.27;98.00
75008;BME280;63554;48.940;12.050;2023-04-28T16:35:19;96985.38;;;11.26;97.93
75008;BME280;63554;48.940;12.050;2023-04-28T16:39:23;96985.59;;;11.24;97.79
75008;BME280;63554;48.940;12.050;2023-04-28T16:43:26;96985.00;;;11.22;97.68
75008;BME280;63554;48.940;12.050;2023-04-28T16:47:29;96979.81;;;11.21;97.87
75008;BME280;63554;48.940;12.050;2023-04-28T16:51:32;96984.56;;;11.25;97.65
75008;BME280;63554;48.940;12.050;2023-04-28T16:55:36;96978.56;;;11.23;97.67
75008;BME280;63554;48.940;12.050;2023-04-28T16:59:38;96981.25;;;11.23;97.87
75008;BME280;63554;48.940;12.050;2023-04-28T17:03:41;96972.28;;;11.23;97.88
75008;BME280;63554;48.940;12.050;2023-04-28T17:07:44;96970.66;;;11.22;97.87
75008;BME280;63554;48.940;12.050;2023-04-28T17:11:48;96962.97;;;11.19;97.68
75008;BME280;63554;48.940;12.050;2023-04-28T17:15:53;96953.56;;;11.10;97.72
75008;BME280;63554;48.940;12.050;2023-04-28T17:19:55;96960.50;;;11.05;97.76
75008;BME280;63554;48.940;12.050;2023-04-28T17:24:00;96963.31;;;11.11;98.03
75008;BME280;63554;48.940;12.050;2023-04-28T17:28:04;96956.38;;;11.03;98.25
75008;BME280;63554;48.940;12.050;2023-04-28T17:32:07;96962.25;;;11.00;98.51
75008;BME280;63554;48.940;12.050;2023-04-28T17:36:09;96980.84;;;10.96;98.68
75008;BME280;63554;48.940;12.050;2023-04-28T17:40:12;96994.25;;;10.91;98.71
75008;BME280;63554;48.940;12.050;2023-04-28T17:44:16;96990.94;;;10.89;98.79
75008;BME280;63554;48.940;12.050;2023-04-28T17:48:19;97013.06;;;10.86;98.78
75008;BME280;63554;48.940;12.050;2023-04-28T17:52:22;96993.88;;;10.87;98.96
75008;BME280;63554;48.940;12.050;2023-04-28T17:56:25;96977.53;;;10.94;98.91
75008;BME280;63554;48.940;12.050;2023-04-28T18:00:29;96951.88;;;10.97;99.01
75008;BME280;63554;48.940;12.050;2023-04-28T18:04:32;96940.91;;;10.92;98.74
75008;BME280;63554;48.940;12.050;2023-04-28T18:08:35;96964.94;;;10.88;98.75
75008;BME280;63554;48.940;12.050;2023-04-28T18:12:38;96975.25;;;10.79;98.80
75008;BME280;63554;48.940;12.050;2023-04-28T18:16:41;96986.91;;;10.80;98.83
75008;BME280;63554;48.940;12.050;2023-04-28T18:20:45;97013.28;;;10.84;99.20
75008;BME280;63554;48.940;12.050;2023-04-28T18:24:48;97012.00;;;10.87;99.18
75008;BME280;63554;48.940;12.050;2023-04-28T18:28:51;96950.09;;;10.91;99.28
75008;BME280;63554;48.940;12.050;2023-04-28T18:32:55;96972.91;;;10.83;99.01
75008;BME280;63554;48.940;12.050;2023-04-28T18:36:58;96986.44;;;10.83;99.14
75008;BME280;63554;48.940;12.050;2023-04-28T18:41:09;96999.16;;;10.82;99.24
75008;BME280;63554;48.940;12.050;2023-04-28T18:45:12;97004.59;;;10.82;99.21
75008;BME280;63554;48.940;12.050;2023-04-28T18:49:17;97004.22;;;10.79;99.37
75008;BME280;63554;48.940;12.050;2023-04-28T18:53:20;97002.31;;;10.79;99.56
75008;BME280;63554;48.940;12.050;2023-04-28T18:57:23;96980.22;;;10.82;99.63
75008;BME280;63554;48.940;12.050;2023-04-28T19:01:25;96981.25;;;10.81;99.67
75008;BME280;63554;48.940;12.050;2023-04-28T19:05:30;96928.19;;;10.80;99.63
75008;BME280;63554;48.940;12.050;2023-04-28T19:09:32;97010.22;;;10.81;99.78
75008;BME280;63554;48.940;12.050;2023-04-28T19:13:35;96993.97;;;10.81;99.75
75008;BME280;63554;48.940;12.050;2023-04-28T19:17:38;97018.81;;;10.89;99.82
75008;BME280;63554;48.940;12.050;2023-04-28T19:21:42;97031.47;;;10.96;100.00
75008;BME280;63554;48.940;12.050;2023-04-28T19:25:45;97041.38;;;11.02;99.96
75008;BME280;63554;48.940;12.050;2023-04-28T19:29:48;97046.69;;;11.08;99.82
75008;BME280;63554;48.940;12.050;2023-04-28T19:33:51;97032.69;;;11.12;99.93
75008;BME280;63554;48.940;12.050;2023-04-28T19:37:55;97047.19;;;11.17;99.56
75008;BME280;63554;48.940;12.050;2023-04-28T19:41:58;97048.59;;;11.20;99.22
75008;BME280;63554;48.940;12.050;2023-04-28T19:46:01;97039.56;;;11.26;98.87
75008;BME280;63554;48.940;12.050;2023-04-28T19:50:05;97029.31;;;11.28;98.40
75008;BME280;63554;48.940;12.050;2023-04-28T19:54:10;97035.31;;;11.30;98.59
75008;BME280;63554;48.940;12.050;2023-04-28T19:58:14;97032.63;;;11.30;98.39
75008;BME280;63554;48.940;12.050;2023-04-28T20:02:17;97034.72;;;11.28;98.02
75008;BME280;63554;48.940;12.050;2023-04-28T20:06:21;97034.72;;;11.28;98.16
75008;BME280;63554;48.940;12.050;2023-04-28T20:10:25;97049.31;;;11.27;97.75
75008;BME280;63554;48.940;12.050;2023-04-28T20:14:28;97053.47;;;11.30;97.40
75008;BME280;63554;48.940;12.050;2023-04-28T20:18:31;97052.03;;;11.27;97.61
75008;BME280;63554;48.940;12.050;2023-04-28T20:22:34;97056.84;;;11.25;97.56
75008;BME280;63554;48.940;12.050;2023-04-28T20:26:38;97057.19;;;11.17;97.37
75008;BME280;63554;48.940;12.050;2023-04-28T20:30:40;97063.44;;;11.17;97.19
75008;BME280;63554;48.940;12.050;2023-04-28T20:34:43;97055.78;;;11.14;96.99
75008;BME280;63554;48.940;12.050;2023-04-28T20:38:46;97061.88;;;11.10;97.34
75008;BME280;63554;48.940;12.050;2023-04-28T20:42:50;97058.66;;;11.01;97.43
75008;BME280;63554;48.940;12.050;2023-04-28T20:46:52;97062.28;;;10.95;97.47
75008;BME280;63554;48.940;12.050;2023-04-28T20:50:56;97066.97;;;10.87;97.58
75008;BME280;63554;48.940;12.050;2023-04-28T20:54:59;97071.41;;;10.82;97.87
75008;BME280;63554;48.940;12.050;2023-04-28T20:59:03;97064.66;;;10.73;97.75
75008;BME280;63554;48.940;12.050;2023-04-28T21:03:05;97074.06;;;10.70;97.98
75008;BME280;63554;48.940;12.050;2023-04-28T21:07:09;97086.16;;;10.67;98.01
75008;BME280;63554;48.940;12.050;2023-04-28T21:11:11;97086.25;;;10.61;97.92
75008;BME280;63554;48.940;12.050;2023-04-28T21:15:16;97091.06;;;10.59;98.18
75008;BME280;63554;48.940;12.050;2023-04-28T21:19:18;97090.47;;;10.57;98.02
75008;BME280;63554;48.940;12.050;2023-04-28T21:23:21;97091.13;;;10.52;98.07